FAPI weather

Pietersburg Municipal Airport
Polokwane, Limpopo, South Africa

Public forecast

Using degrees Celsius for public forecast. Weather courtesy of forecast.io.

Closest aviation weather report (METAR) to Pietersburg Municipal Airport

Closest report is Polokwane International Airport, 5.1 nm (9.4 km) NNW. Retrieved 2020/06/02 10:00 UTC (10 minutes ago):

FAPP 021000Z 14001KT 9999 FEW025 22/06 Q1028 NOSIG

Closest aviation forecast (TAF) to Pietersburg Municipal Airport

Forecast is more than 12 hours old.

Closest forecast is Polokwane International Airport, 5.1 nm (9.4 km) NNW. Retrieved 2017/06/05 04:55 UTC (3 years ago):

TAF FAPP 050300Z 0504/0515 16005KT CAVOK BECMG 0508/0510 06008KT TX21/0513ZTN08/0504Z